createdAt,value
2023-10-18T04:15:22.896Z,0.00
2023-10-18T04:16:22.866Z,0.00
2023-10-18T04:17:22.785Z,0.00
2023-10-18T04:18:22.771Z,0.00
2023-10-18T04:19:22.813Z,0.00
2023-10-18T04:20:22.747Z,0.00
2023-10-18T04:21:22.726Z,0.00
2023-10-18T04:22:22.716Z,0.00
2023-10-18T04:23:22.721Z,0.00
2023-10-18T04:24:22.693Z,0.00
2023-10-18T04:25:22.723Z,0.00
2023-10-18T04:26:22.679Z,0.00
2023-10-18T04:27:22.647Z,0.00
2023-10-18T04:28:22.657Z,0.00
2023-10-18T04:29:22.667Z,0.00
2023-10-18T04:30:22.627Z,0.00
2023-10-18T04:31:23.229Z,0.00
2023-10-18T04:32:22.591Z,0.00
2023-10-18T04:33:22.613Z,0.00
2023-10-18T04:34:22.611Z,0.00
2023-10-18T04:35:22.546Z,0.00
2023-10-18T04:36:22.530Z,0.00
2023-10-18T04:37:22.593Z,0.00
2023-10-18T04:38:22.510Z,0.00
2023-10-18T04:39:22.507Z,0.00
2023-10-18T04:40:22.537Z,0.00
2023-10-18T04:41:22.477Z,0.00
2023-10-18T04:42:22.466Z,0.00
2023-10-18T04:43:22.482Z,0.00
2023-10-18T04:44:22.449Z,0.00
2023-10-18T04:45:22.421Z,0.00
2023-10-18T04:46:22.458Z,0.00
2023-10-18T04:47:22.393Z,0.00
2023-10-18T04:48:22.393Z,0.00
2023-10-18T04:49:22.371Z,0.00
2023-10-18T04:50:22.357Z,0.00
2023-10-18T04:51:22.339Z,0.00
2023-10-18T04:52:22.356Z,0.00
2023-10-18T04:53:22.341Z,0.00
2023-10-18T04:54:22.301Z,0.00
2023-10-18T04:55:22.316Z,0.00
2023-10-18T04:56:22.279Z,0.00
2023-10-18T04:57:22.284Z,0.00
2023-10-18T04:58:22.272Z,0.00
2023-10-18T04:59:22.234Z,0.00
2023-10-18T05:00:22.223Z,0.00
2023-10-18T05:01:22.246Z,0.00
2023-10-18T05:02:22.211Z,0.00
2023-10-18T05:03:22.204Z,0.00
2023-10-18T05:04:22.271Z,0.00
2023-10-18T05:05:22.160Z,0.00
2023-10-18T05:06:22.148Z,0.00
2023-10-18T05:07:22.205Z,0.00
2023-10-18T05:08:22.128Z,0.00
2023-10-18T05:09:22.116Z,0.00
2023-10-18T05:10:25.530Z,0.00
2023-10-18T05:11:30.159Z,0.00
2023-10-18T05:12:22.091Z,0.00
2023-10-18T05:13:22.091Z,0.00
2023-10-18T05:14:22.047Z,0.00
2023-10-18T05:15:22.032Z,0.00
2023-10-18T05:16:22.129Z,0.00
2023-10-18T05:17:22.025Z,0.00
2023-10-18T05:18:21.999Z,0.00
2023-10-18T05:19:22.012Z,0.00
2023-10-18T05:20:21.972Z,0.00
2023-10-18T05:21:22.011Z,0.00
2023-10-18T05:22:22.034Z,0.00
2023-10-18T05:23:21.929Z,0.00
2023-10-18T05:24:21.926Z,0.00
2023-10-18T05:25:22.001Z,4.00
2023-10-18T05:26:21.915Z,4.00
2023-10-18T05:27:21.875Z,0.00
2023-10-18T05:28:21.923Z,0.00
2023-10-18T05:29:21.864Z,4.00
2023-10-18T05:30:21.856Z,4.00
2023-10-18T05:31:21.912Z,0.00
2023-10-18T05:32:29.981Z,4.00
2023-10-18T05:33:22.877Z,0.00
2023-10-18T05:34:21.887Z,4.00
2023-10-18T05:35:21.794Z,4.00
2023-10-18T05:36:21.774Z,4.00
2023-10-18T05:37:21.777Z,8.00
2023-10-18T05:38:21.750Z,8.00
2023-10-18T05:39:21.746Z,8.00
2023-10-18T05:40:21.762Z,8.00
2023-10-18T05:41:21.701Z,12.00
2023-10-18T05:42:21.715Z,16.00
2023-10-18T05:43:21.699Z,20.00
2023-10-18T05:44:21.678Z,20.00
2023-10-18T05:45:21.657Z,24.00
2023-10-18T05:46:21.963Z,32.00
2023-10-18T05:47:21.625Z,32.00
2023-10-18T05:48:21.614Z,40.00
2023-10-18T05:49:21.639Z,44.00
2023-10-18T05:50:21.591Z,48.00
2023-10-18T05:51:34.764Z,52.00
2023-10-18T05:52:22.579Z,60.00
2023-10-18T05:53:21.550Z,68.00
2023-10-18T05:54:21.543Z,72.00
2023-10-18T05:55:21.568Z,76.00
2023-10-18T05:56:21.505Z,88.00
2023-10-18T05:57:21.495Z,92.00
2023-10-18T05:58:21.503Z,104.00
2023-10-18T05:59:21.968Z,108.00
2023-10-18T06:00:21.461Z,120.00
2023-10-18T06:01:21.506Z,132.00
2023-10-18T06:02:21.506Z,140.00
2023-10-18T06:03:21.472Z,152.00
2023-10-18T06:04:21.435Z,164.00
2023-10-18T06:05:21.395Z,180.00
2023-10-18T06:06:21.371Z,196.00
2023-10-18T06:07:23.385Z,212.00
2023-10-18T06:08:21.362Z,232.00
2023-10-18T06:09:21.341Z,256.00
2023-10-18T06:10:21.369Z,272.00
2023-10-18T06:11:21.314Z,296.00
2023-10-18T06:12:21.316Z,320.00
2023-10-18T06:13:21.312Z,344.00
2023-10-18T06:14:21.270Z,368.00
2023-10-18T06:15:21.264Z,396.00
2023-10-18T06:16:21.356Z,420.00
2023-10-18T06:17:21.300Z,452.00
2023-10-18T06:18:21.369Z,484.00
2023-10-18T06:19:21.248Z,516.00
2023-10-18T06:20:21.202Z,548.00
2023-10-18T06:21:21.256Z,584.00
2023-10-18T06:22:21.199Z,620.00
2023-10-18T06:23:21.194Z,660.00
2023-10-18T06:24:21.142Z,696.00
2023-10-18T06:25:21.170Z,732.00
2023-10-18T06:26:21.133Z,772.00
2023-10-18T06:27:21.113Z,812.00
2023-10-18T06:28:21.805Z,852.00
2023-10-18T06:29:21.102Z,892.00
2023-10-18T06:30:21.074Z,932.00
2023-10-18T06:31:23.233Z,972.00
2023-10-18T06:32:21.075Z,1012.00
2023-10-18T06:33:21.037Z,1052.00
2023-10-18T06:34:21.057Z,1092.00
2023-10-18T06:35:21.083Z,1136.00
2023-10-18T06:36:21.008Z,1180.00
2023-10-18T06:37:21.012Z,1220.00
2023-10-18T06:38:20.976Z,1256.00
2023-10-18T06:39:20.962Z,1300.00
2023-10-18T06:40:20.985Z,1340.00
2023-10-18T06:41:20.954Z,1376.00
2023-10-18T06:42:20.922Z,1424.00
2023-10-18T06:43:20.998Z,1464.00
2023-10-18T06:44:20.901Z,1508.00
2023-10-18T06:45:20.908Z,1552.00
2023-10-18T06:46:20.906Z,1592.00
2023-10-18T06:47:20.861Z,1636.00
2023-10-18T06:48:20.860Z,1676.00
2023-10-18T06:49:20.865Z,1720.00
2023-10-18T06:50:21.286Z,1756.00
2023-10-18T06:51:20.847Z,1792.00
2023-10-18T06:52:20.823Z,1832.00
2023-10-18T06:53:20.797Z,1864.00
2023-10-18T06:54:20.786Z,1900.00
2023-10-18T06:55:20.786Z,1932.00
2023-10-18T06:56:20.891Z,1964.00
2023-10-18T06:57:20.737Z,1992.00
2023-10-18T06:58:20.736Z,2028.00
2023-10-18T06:59:20.736Z,2056.00
2023-10-18T07:00:20.705Z,2088.00
2023-10-18T07:01:20.802Z,2124.00
2023-10-18T07:02:20.688Z,2160.00
2023-10-18T07:03:20.729Z,2196.00
2023-10-18T07:04:20.676Z,2228.00
2023-10-18T07:05:20.633Z,2260.00
2023-10-18T07:06:20.765Z,2296.00
2023-10-18T07:07:20.647Z,2336.00
2023-10-18T07:08:20.618Z,2372.00
2023-10-18T07:09:20.590Z,2420.00
2023-10-18T07:10:20.600Z,2460.00
2023-10-18T07:11:28.760Z,2508.00
2023-10-18T07:12:21.542Z,2560.00
2023-10-18T07:13:20.605Z,2612.00
2023-10-18T07:14:20.525Z,2668.00
2023-10-18T07:15:20.513Z,2720.00
2023-10-18T07:16:20.585Z,2776.00
2023-10-18T07:17:20.487Z,2824.00
2023-10-18T07:18:20.505Z,2880.00
2023-10-18T07:19:20.539Z,2936.00
2023-10-18T07:20:20.465Z,2980.00
2023-10-18T07:21:20.508Z,3024.00
2023-10-18T07:22:20.516Z,3076.00
2023-10-18T07:23:20.456Z,3128.00
2023-10-18T07:24:20.398Z,3172.00
2023-10-18T07:25:20.796Z,3224.00
2023-10-18T07:26:20.379Z,3268.00
2023-10-18T07:27:20.360Z,3308.00
2023-10-18T07:28:20.394Z,3348.00
2023-10-18T07:29:20.324Z,3392.00
2023-10-18T07:30:20.328Z,3440.00
2023-10-18T07:31:20.358Z,3488.00
2023-10-18T07:32:20.387Z,3524.00
2023-10-18T07:33:20.339Z,3568.00
2023-10-18T07:34:20.474Z,3608.00
2023-10-18T07:35:20.248Z,3656.00
2023-10-18T07:36:20.246Z,3692.00
2023-10-18T07:37:20.382Z,3732.00
2023-10-18T07:38:20.202Z,3772.00
2023-10-18T07:39:20.198Z,3812.00
2023-10-18T07:40:20.199Z,3844.00
2023-10-18T07:41:20.182Z,3876.00
2023-10-18T07:42:20.280Z,3912.00
2023-10-18T07:43:20.159Z,3944.00
2023-10-18T07:44:20.133Z,3968.00
2023-10-18T07:45:20.117Z,3996.00
2023-10-18T07:46:20.279Z,4024.00
2023-10-18T07:47:20.093Z,4056.00
2023-10-18T07:48:20.105Z,4084.00
2023-10-18T07:49:20.250Z,4112.00
2023-10-18T07:50:20.054Z,4144.00
2023-10-18T07:51:20.053Z,4176.00
2023-10-18T07:52:20.050Z,4196.00
2023-10-18T07:53:20.016Z,4224.00
2023-10-18T07:54:20.000Z,4248.00
2023-10-18T07:55:20.021Z,4272.00
2023-10-18T07:56:19.982Z,4296.00
2023-10-18T07:57:19.961Z,4320.00
2023-10-18T07:58:19.988Z,4348.00
2023-10-18T07:59:19.979Z,4376.00
2023-10-18T08:00:19.938Z,4408.00
2023-10-18T08:01:19.974Z,4452.00
2023-10-18T08:02:19.889Z,4492.00
2023-10-18T08:03:19.959Z,4528.00
2023-10-18T08:04:19.964Z,4572.00
2023-10-18T08:05:20.366Z,4600.00
2023-10-18T08:06:19.844Z,4640.00
2023-10-18T08:07:20.104Z,4680.00
2023-10-18T08:08:19.845Z,4728.00
2023-10-18T08:09:19.835Z,4780.00
2023-10-18T08:10:19.864Z,4844.00
2023-10-18T08:11:19.798Z,4900.00
2023-10-18T08:12:19.768Z,4980.00
2023-10-18T08:13:19.824Z,5044.00
2023-10-18T08:14:19.750Z,5120.00
2023-10-18T08:15:19.725Z,5204.00
2023-10-18T08:16:19.735Z,5292.00
2023-10-18T08:17:19.714Z,5364.00
2023-10-18T08:18:19.690Z,5440.00
2023-10-18T08:19:19.701Z,5504.00
2023-10-18T08:20:19.694Z,5592.00
2023-10-18T08:21:19.652Z,5672.00
2023-10-18T08:22:21.515Z,5744.00
2023-10-18T08:23:19.639Z,5812.00
2023-10-18T08:24:19.639Z,5892.00
2023-10-18T08:25:19.669Z,5932.00
2023-10-18T08:26:19.588Z,5988.00
2023-10-18T08:27:19.582Z,6036.00
2023-10-18T08:28:19.624Z,6092.00
2023-10-18T08:29:19.556Z,6148.00
2023-10-18T08:30:19.534Z,6208.00
2023-10-18T08:31:19.534Z,6268.00
2023-10-18T08:32:19.510Z,6316.00
2023-10-18T08:33:19.503Z,6384.00
2023-10-18T08:34:19.635Z,6452.00
2023-10-18T08:35:19.466Z,6520.00
2023-10-18T08:36:19.470Z,6596.00
2023-10-18T08:37:19.460Z,6660.00
2023-10-18T08:38:19.441Z,6740.00
2023-10-18T08:39:19.411Z,6804.00
2023-10-18T08:40:19.428Z,6876.00
2023-10-18T08:41:19.397Z,6940.00
2023-10-18T08:42:19.381Z,6984.00
2023-10-18T08:43:19.383Z,7024.00
2023-10-18T08:44:19.363Z,7092.00
2023-10-18T08:45:19.334Z,7148.00
2023-10-18T08:46:19.395Z,7188.00
2023-10-18T08:47:19.357Z,7288.00
2023-10-18T08:48:19.324Z,7332.00
2023-10-18T08:49:19.322Z,7416.00
2023-10-18T08:50:19.273Z,7524.00
2023-10-18T08:51:19.271Z,7608.00
2023-10-18T08:52:19.318Z,7696.00
2023-10-18T08:53:19.234Z,7812.00
2023-10-18T08:54:19.221Z,7924.00
2023-10-18T08:55:19.260Z,8012.00
2023-10-18T08:56:19.216Z,8092.00
2023-10-18T08:57:19.198Z,8288.00
2023-10-18T08:58:19.255Z,8404.00
2023-10-18T08:59:19.154Z,8496.00
2023-10-18T09:00:19.157Z,8600.00
2023-10-18T09:01:19.193Z,8716.00
2023-10-18T09:02:19.299Z,8796.00
2023-10-18T09:03:19.168Z,8880.00
2023-10-18T09:04:19.183Z,9076.00
2023-10-18T09:05:19.081Z,9200.00
2023-10-18T09:06:19.073Z,9280.00
2023-10-18T09:07:19.100Z,9312.00
2023-10-18T09:08:19.043Z,9664.00
2023-10-18T09:09:19.034Z,9888.00
2023-10-18T09:10:19.127Z,10092.00
2023-10-18T09:11:19.043Z,10256.00
2023-10-18T09:12:18.991Z,10392.00
2023-10-18T09:13:19.993Z,10560.00
2023-10-18T09:14:19.030Z,10796.00
2023-10-18T09:15:18.980Z,11020.00
2023-10-18T09:16:18.995Z,11488.00
2023-10-18T09:17:18.992Z,11688.00
2023-10-18T09:18:18.910Z,11920.00
2023-10-18T09:19:18.926Z,12224.00
2023-10-18T09:20:18.906Z,12608.00
2023-10-18T09:21:19.335Z,13408.00
2023-10-18T09:22:18.935Z,14252.00
2023-10-18T09:23:18.856Z,14848.00
2023-10-18T09:24:18.848Z,15584.00
2023-10-18T09:25:18.881Z,16320.00
2023-10-18T09:26:18.800Z,17248.00
2023-10-18T09:27:18.786Z,17152.00
2023-10-18T09:28:18.833Z,17344.00
2023-10-18T09:29:18.769Z,17472.00
2023-10-18T09:30:18.754Z,18464.00
2023-10-18T09:31:20.964Z,18656.00
2023-10-18T09:32:18.770Z,19872.00
2023-10-18T09:33:18.730Z,20480.00
2023-10-18T09:34:18.722Z,20672.00
2023-10-18T09:35:18.686Z,20160.00
2023-10-18T09:36:18.672Z,20224.00
2023-10-18T09:37:18.749Z,19520.00
2023-10-18T09:38:18.662Z,19040.00
2023-10-18T09:39:18.627Z,19136.00
2023-10-18T09:40:18.653Z,19968.00
2023-10-18T09:41:18.605Z,22176.00
2023-10-18T09:42:18.593Z,24768.00
2023-10-18T09:43:18.637Z,26016.00
2023-10-18T09:44:20.603Z,26080.00
2023-10-18T09:45:18.558Z,25728.00
2023-10-18T09:46:18.607Z,25088.00
2023-10-18T09:47:18.605Z,24896.00
2023-10-18T09:48:18.524Z,27456.00
2023-10-18T09:49:18.574Z,29088.00
2023-10-18T09:50:18.505Z,30016.00
2023-10-18T09:51:18.469Z,32032.00
2023-10-18T09:52:18.521Z,34656.00
2023-10-18T09:53:18.445Z,36224.00
2023-10-18T09:54:18.456Z,37184.00
2023-10-18T09:55:18.437Z,36960.00
2023-10-18T09:56:18.417Z,36640.00
2023-10-18T09:57:18.403Z,33952.00
2023-10-18T09:58:18.451Z,33376.00
2023-10-18T09:59:18.388Z,32224.00
2023-10-18T10:00:18.365Z,28000.00
2023-10-18T10:01:18.436Z,26304.00
2023-10-18T10:02:18.417Z,26336.00
2023-10-18T10:03:18.418Z,28128.00
2023-10-18T10:04:18.322Z,30080.00
2023-10-18T10:05:18.293Z,32448.00
2023-10-18T10:06:18.288Z,33472.00
2023-10-18T10:07:18.355Z,35968.00
2023-10-18T10:08:18.251Z,37504.00
2023-10-18T10:09:18.252Z,35360.00
2023-10-18T10:10:18.267Z,34592.00
2023-10-18T10:11:18.235Z,34144.00
2023-10-18T10:12:18.228Z,34016.00
2023-10-18T10:13:18.228Z,34720.00
2023-10-18T10:14:18.186Z,33248.00
2023-10-18T10:15:18.194Z,36096.00
2023-10-18T10:16:18.205Z,35616.00
2023-10-18T10:17:18.164Z,33056.00
2023-10-18T10:18:18.123Z,28928.00
2023-10-18T10:19:18.132Z,27712.00
2023-10-18T10:20:18.105Z,25792.00
2023-10-18T10:21:18.087Z,27200.00
2023-10-18T10:22:18.091Z,31584.00
2023-10-18T10:23:18.077Z,32064.00
2023-10-18T10:24:18.042Z,33856.00
2023-10-18T10:25:26.238Z,35552.00
2023-10-18T10:26:32.956Z,37088.00
2023-10-18T10:27:19.010Z,35552.00
2023-10-18T10:28:18.009Z,33856.00
2023-10-18T10:29:17.999Z,34752.00
2023-10-18T10:30:17.978Z,35264.00
2023-10-18T10:31:18.014Z,35072.00
2023-10-18T10:32:17.941Z,34464.00
2023-10-18T10:33:17.935Z,34560.00
2023-10-18T10:34:17.951Z,36000.00
2023-10-18T10:35:17.906Z,35616.00
2023-10-18T10:36:17.923Z,36160.00
2023-10-18T10:37:17.881Z,36896.00
2023-10-18T10:38:17.893Z,35968.00
2023-10-18T10:39:17.867Z,33664.00
2023-10-18T10:40:17.859Z,31168.00
2023-10-18T10:41:17.836Z,28896.00
2023-10-18T10:42:17.815Z,28768.00
2023-10-18T10:43:17.865Z,28544.00
2023-10-18T10:44:17.800Z,27360.00
2023-10-18T10:45:17.798Z,28320.00
2023-10-18T10:46:17.819Z,27744.00
2023-10-18T10:47:17.778Z,28000.00
2023-10-18T10:48:17.761Z,26688.00
2023-10-18T10:49:17.759Z,25024.00
2023-10-18T10:50:17.730Z,25088.00
2023-10-18T10:51:17.703Z,27200.00
2023-10-18T10:52:17.703Z,26912.00
2023-10-18T10:53:17.694Z,25472.00
2023-10-18T10:54:17.659Z,25056.00
2023-10-18T10:55:17.709Z,24736.00
2023-10-18T10:56:17.632Z,26208.00
2023-10-18T10:57:17.643Z,28000.00
2023-10-18T10:58:17.728Z,28640.00
2023-10-18T10:59:17.601Z,28928.00
2023-10-18T11:00:17.577Z,30464.00
2023-10-18T11:01:17.621Z,31232.00
2023-10-18T11:02:17.603Z,30912.00
2023-10-18T11:03:17.581Z,30336.00
2023-10-18T11:04:17.550Z,28800.00
2023-10-18T11:05:17.525Z,26816.00
2023-10-18T11:06:17.539Z,26176.00
2023-10-18T11:07:17.537Z,26560.00
2023-10-18T11:08:17.476Z,24576.00
2023-10-18T11:09:17.484Z,24480.00
2023-10-18T11:10:17.529Z,24096.00
2023-10-18T11:11:17.456Z,24480.00
2023-10-18T11:12:24.517Z,23520.00
2023-10-18T11:13:17.479Z,22080.00
2023-10-18T11:14:17.420Z,21408.00
2023-10-18T11:15:17.507Z,21664.00
2023-10-18T11:16:17.449Z,20224.00
2023-10-18T11:17:17.803Z,19840.00
2023-10-18T11:18:17.356Z,20256.00
2023-10-18T11:19:17.365Z,21472.00
2023-10-18T11:20:17.334Z,18784.00
2023-10-18T11:21:17.335Z,23360.00
2023-10-18T11:22:17.305Z,20448.00
2023-10-18T11:23:17.274Z,20128.00
2023-10-18T11:24:17.274Z,17088.00
2023-10-18T11:25:17.291Z,16768.00
2023-10-18T11:26:17.264Z,15648.00
2023-10-18T11:27:17.229Z,15168.00
2023-10-18T11:28:18.275Z,14900.00
2023-10-18T11:29:17.203Z,14716.00
2023-10-18T11:30:17.362Z,14744.00
2023-10-18T11:31:17.366Z,15584.00
2023-10-18T11:32:17.293Z,14868.00
2023-10-18T11:33:17.208Z,14816.00
2023-10-18T11:34:17.143Z,14852.00
2023-10-18T11:35:19.236Z,14368.00
2023-10-18T11:36:17.109Z,15456.00
2023-10-18T11:37:17.136Z,16128.00
2023-10-18T11:38:17.082Z,14632.00
2023-10-18T11:39:17.082Z,14328.00
2023-10-18T11:40:17.155Z,14912.00
2023-10-18T11:41:17.048Z,16000.00
2023-10-18T11:42:17.065Z,16928.00
2023-10-18T11:43:17.050Z,19040.00
2023-10-18T11:44:17.025Z,19264.00
2023-10-18T11:45:16.984Z,21184.00
2023-10-18T11:46:17.035Z,21088.00
2023-10-18T11:47:16.961Z,20288.00
2023-10-18T11:48:16.954Z,18176.00
2023-10-18T11:49:16.999Z,16832.00
2023-10-18T11:50:16.949Z,16832.00
2023-10-18T11:51:16.914Z,16448.00
2023-10-18T11:52:16.917Z,18048.00
2023-10-18T11:53:16.902Z,17248.00
2023-10-18T11:54:16.881Z,16416.00
2023-10-18T11:55:16.922Z,16064.00
2023-10-18T11:56:16.843Z,15904.00
2023-10-18T11:57:16.827Z,15072.00
2023-10-18T11:58:16.839Z,14976.00
2023-10-18T11:59:16.799Z,14636.00
2023-10-18T12:00:16.821Z,14648.00
2023-10-18T12:01:16.937Z,15136.00
2023-10-18T12:02:16.803Z,14396.00
2023-10-18T12:03:16.918Z,14504.00
2023-10-18T12:04:17.270Z,14092.00
2023-10-18T12:05:18.842Z,13884.00
2023-10-18T12:06:16.732Z,13796.00
2023-10-18T12:07:16.736Z,13984.00
2023-10-18T12:08:16.712Z,14264.00
2023-10-18T12:09:16.690Z,14860.00
2023-10-18T12:10:16.780Z,14680.00
2023-10-18T12:11:16.664Z,15648.00
2023-10-18T12:12:16.661Z,15520.00
2023-10-18T12:13:16.643Z,16672.00
2023-10-18T12:14:16.614Z,17056.00
2023-10-18T12:15:16.597Z,19264.00
2023-10-18T12:16:16.694Z,19584.00
2023-10-18T12:17:16.576Z,21760.00
2023-10-18T12:18:16.568Z,22976.00
2023-10-18T12:19:16.643Z,19936.00
2023-10-18T12:20:16.530Z,21440.00
2023-10-18T12:21:16.520Z,21664.00
2023-10-18T12:22:16.828Z,24864.00
2023-10-18T12:23:17.201Z,27296.00
2023-10-18T12:24:16.473Z,32512.00
2023-10-18T12:25:16.617Z,39264.00
2023-10-18T12:26:16.460Z,37056.00
2023-10-18T12:27:16.428Z,38368.00
2023-10-18T12:28:16.472Z,36352.00
2023-10-18T12:29:16.427Z,45856.00
2023-10-18T12:30:30.595Z,58688.00
2023-10-18T12:31:17.487Z,54816.00
2023-10-18T12:32:16.415Z,55264.00
2023-10-18T12:33:16.394Z,49280.00
2023-10-18T12:34:16.394Z,58176.00
2023-10-18T12:35:16.341Z,55392.00
2023-10-18T12:36:16.349Z,66176.00
2023-10-18T12:37:16.365Z,70560.00
2023-10-18T12:38:16.320Z,71168.00
2023-10-18T12:39:16.286Z,74496.00
2023-10-18T12:40:16.352Z,77760.00
2023-10-18T12:41:16.271Z,83072.00
2023-10-18T12:42:16.245Z,76864.00
2023-10-18T12:43:16.277Z,80544.00
2023-10-18T12:44:16.230Z,83360.00
2023-10-18T12:45:16.213Z,92160.00
2023-10-18T12:46:16.285Z,89344.00
2023-10-18T12:47:16.174Z,93472.00
2023-10-18T12:48:16.169Z,88832.00
2023-10-18T12:49:16.187Z,67264.00
2023-10-18T12:50:16.158Z,60736.00
2023-10-18T12:51:16.131Z,46752.00
2023-10-18T12:52:16.142Z,32832.00
2023-10-18T12:53:16.150Z,26496.00
2023-10-18T12:55:16.098Z,24192.00
2023-10-18T12:56:16.068Z,23360.00
2023-10-18T12:57:16.053Z,23776.00
2023-10-18T12:58:16.042Z,22688.00
2023-10-18T12:59:16.107Z,21824.00
2023-10-18T13:00:16.019Z,21664.00
2023-10-18T13:01:16.050Z,20736.00
2023-10-18T13:02:16.057Z,19616.00
2023-10-18T13:03:16.060Z,17696.00
2023-10-18T13:04:15.988Z,15008.00
2023-10-18T13:05:16.012Z,12516.00
2023-10-18T13:06:15.968Z,11104.00
2023-10-18T13:07:15.926Z,10760.00
2023-10-18T13:08:15.953Z,10636.00
2023-10-18T13:09:15.961Z,10532.00
2023-10-18T13:10:15.898Z,10488.00
2023-10-18T13:11:16.179Z,10516.00
2023-10-18T13:12:15.906Z,10600.00
2023-10-18T13:13:15.856Z,10788.00
2023-10-18T13:14:15.914Z,11032.00
2023-10-18T13:15:15.869Z,11276.00
2023-10-18T13:16:15.871Z,11584.00
2023-10-18T13:17:15.806Z,11880.00
2023-10-18T13:18:15.832Z,12076.00
2023-10-18T13:19:15.772Z,12332.00
2023-10-18T13:20:15.797Z,12468.00
2023-10-18T13:21:15.745Z,12580.00
2023-10-18T13:22:15.752Z,12680.00
2023-10-18T13:23:15.787Z,12748.00
2023-10-18T13:24:15.707Z,12828.00
2023-10-18T13:25:15.691Z,12892.00
2023-10-18T13:26:15.750Z,12880.00
2023-10-18T13:27:15.683Z,12956.00
2023-10-18T13:28:15.660Z,12920.00
2023-10-18T13:29:15.677Z,12912.00
2023-10-18T13:30:15.637Z,12928.00
2023-10-18T13:31:15.664Z,12860.00
2023-10-18T13:32:15.637Z,12876.00
2023-10-18T13:33:15.743Z,12828.00
2023-10-18T13:34:15.590Z,12736.00
2023-10-18T13:35:15.588Z,12796.00
2023-10-18T13:36:15.573Z,12784.00
2023-10-18T13:37:15.592Z,12800.00
2023-10-18T13:38:15.565Z,12772.00
2023-10-18T13:39:15.521Z,12748.00
2023-10-18T13:40:15.506Z,12680.00
2023-10-18T13:41:15.535Z,12612.00
2023-10-18T13:42:15.505Z,12524.00
2023-10-18T13:43:15.464Z,12432.00
2023-10-18T13:44:15.617Z,12336.00
2023-10-18T13:45:15.449Z,12272.00
2023-10-18T13:46:15.484Z,12236.00
2023-10-18T13:47:15.458Z,12208.00
2023-10-18T13:48:15.483Z,12216.00
2023-10-18T13:49:15.390Z,12188.00
2023-10-18T13:50:16.827Z,12148.00
2023-10-18T13:51:15.378Z,12072.00
2023-10-18T13:52:15.352Z,11964.00
2023-10-18T13:53:15.423Z,11852.00
2023-10-18T13:54:15.338Z,11752.00
2023-10-18T13:55:15.353Z,11668.00
2023-10-18T13:56:15.342Z,11588.00
2023-10-18T13:57:15.361Z,11480.00
2023-10-18T13:58:15.276Z,11364.00
2023-10-18T13:59:15.289Z,11220.00
2023-10-18T14:00:15.270Z,11136.00
2023-10-18T14:01:15.242Z,11048.00
2023-10-18T14:02:15.247Z,10896.00
2023-10-18T14:03:15.480Z,10812.00
2023-10-18T14:04:15.323Z,10708.00
2023-10-18T14:05:15.205Z,10568.00
2023-10-18T14:06:15.168Z,10512.00
2023-10-18T14:07:15.145Z,10436.00
2023-10-18T14:08:15.164Z,10368.00
2023-10-18T14:09:15.234Z,10332.00
2023-10-18T14:10:15.130Z,10248.00
2023-10-18T14:11:15.139Z,10204.00
2023-10-18T14:12:15.089Z,10148.00
2023-10-18T14:13:15.078Z,10080.00
2023-10-18T14:14:15.156Z,10048.00
2023-10-18T14:15:15.050Z,10064.00
2023-10-18T14:16:15.046Z,10036.00
2023-10-18T14:17:15.909Z,10060.00
2023-10-18T14:18:15.036Z,10104.00
2023-10-18T14:19:15.015Z,10128.00
2023-10-18T14:20:15.815Z,10128.00
2023-10-18T14:21:14.972Z,10140.00
2023-10-18T14:22:14.966Z,10152.00
2023-10-18T14:23:14.968Z,10160.00
2023-10-18T14:24:14.962Z,10176.00
2023-10-18T14:25:15.090Z,10220.00
2023-10-18T14:26:14.922Z,10248.00
2023-10-18T14:27:14.903Z,10248.00
2023-10-18T14:28:14.904Z,10252.00
2023-10-18T14:29:14.903Z,10212.00
2023-10-18T14:30:14.869Z,10196.00
2023-10-18T14:31:14.890Z,10144.00
2023-10-18T14:32:14.866Z,10076.00
2023-10-18T14:33:23.920Z,10004.00
2023-10-18T14:34:15.820Z,9900.00
2023-10-18T14:35:14.840Z,9748.00
2023-10-18T14:36:14.852Z,9588.00
2023-10-18T14:37:14.821Z,9432.00
2023-10-18T14:38:14.849Z,9260.00
2023-10-18T14:39:15.370Z,9096.00
2023-10-18T14:40:14.792Z,8908.00
2023-10-18T14:41:28.749Z,8748.00
2023-10-18T14:42:15.732Z,8564.00
2023-10-18T14:43:14.721Z,8364.00
2023-10-18T14:44:14.715Z,8180.00
2023-10-18T14:45:14.674Z,7996.00
2023-10-18T14:46:14.671Z,7796.00
2023-10-18T14:47:14.697Z,7604.00
2023-10-18T14:48:14.762Z,7420.00
2023-10-18T14:49:14.618Z,7256.00
2023-10-18T14:50:14.740Z,7088.00
2023-10-18T14:51:14.587Z,6928.00
2023-10-18T14:52:14.592Z,6800.00
2023-10-18T14:53:14.608Z,6676.00
2023-10-18T14:54:14.555Z,6564.00
2023-10-18T14:55:14.545Z,6460.00
2023-10-18T14:56:14.569Z,6372.00
2023-10-18T14:57:14.555Z,6300.00
2023-10-18T14:58:14.504Z,6248.00
2023-10-18T14:59:14.538Z,6156.00
2023-10-18T15:00:14.480Z,6132.00
2023-10-18T15:01:14.652Z,6088.00
2023-10-18T15:02:14.622Z,6052.00
2023-10-18T15:03:14.484Z,5984.00
2023-10-18T15:04:14.450Z,5948.00
2023-10-18T15:05:14.462Z,5876.00
2023-10-18T15:06:14.419Z,5772.00
2023-10-18T15:07:14.400Z,5768.00
2023-10-18T15:08:14.419Z,5716.00
2023-10-18T15:09:14.354Z,5652.00
2023-10-18T15:10:14.346Z,5592.00
2023-10-18T15:11:14.447Z,5504.00
2023-10-18T15:12:17.302Z,5388.00
2023-10-18T15:13:14.304Z,5324.00
2023-10-18T15:14:14.347Z,5260.00
2023-10-18T15:15:14.289Z,5140.00
2023-10-18T15:16:14.284Z,5032.00
2023-10-18T15:17:14.321Z,4920.00
2023-10-18T15:18:14.367Z,4844.00
2023-10-18T15:19:14.223Z,4760.00
2023-10-18T15:20:14.300Z,4656.00
2023-10-18T15:21:14.200Z,4552.00
2023-10-18T15:22:14.232Z,4524.00
2023-10-18T15:23:14.227Z,4424.00
2023-10-18T15:24:14.166Z,4344.00
2023-10-18T15:25:14.157Z,4332.00
2023-10-18T15:26:14.133Z,4276.00
2023-10-18T15:27:14.223Z,4216.00
2023-10-18T15:28:14.109Z,4160.00
2023-10-18T15:29:14.117Z,4104.00
2023-10-18T15:30:14.101Z,4052.00
2023-10-18T15:31:14.119Z,3992.00
2023-10-18T15:32:14.094Z,3940.00
2023-10-18T15:33:14.081Z,3860.00
2023-10-18T15:34:14.049Z,3820.00
2023-10-18T15:35:14.051Z,3748.00
2023-10-18T15:36:14.013Z,3656.00
2023-10-18T15:37:13.990Z,3596.00
2023-10-18T15:38:14.031Z,3488.00
2023-10-18T15:39:13.978Z,3408.00
2023-10-18T15:40:13.954Z,3280.00
2023-10-18T15:41:14.013Z,3192.00
2023-10-18T15:42:13.930Z,3100.00
2023-10-18T15:43:13.921Z,3000.00
2023-10-18T15:44:14.002Z,2896.00
2023-10-18T15:45:13.880Z,2792.00
2023-10-18T15:46:13.911Z,2692.00
2023-10-18T15:47:13.913Z,2588.00
2023-10-18T15:48:13.858Z,2480.00
2023-10-18T15:49:13.831Z,2368.00
2023-10-18T15:50:13.852Z,2260.00
2023-10-18T15:51:13.810Z,2152.00
2023-10-18T15:52:13.816Z,2048.00
2023-10-18T15:53:13.813Z,1952.00
2023-10-18T15:54:13.879Z,1868.00
2023-10-18T15:55:13.755Z,1788.00
2023-10-18T15:56:13.801Z,1708.00
2023-10-18T15:57:13.741Z,1636.00
2023-10-18T15:58:13.732Z,1564.00
2023-10-18T15:59:13.728Z,1496.00
2023-10-18T16:00:13.705Z,1420.00
2023-10-18T16:01:13.782Z,1364.00
2023-10-18T16:02:13.994Z,1296.00
2023-10-18T16:03:13.773Z,1236.00
2023-10-18T16:04:13.820Z,1168.00
2023-10-18T16:05:13.654Z,1104.00
2023-10-18T16:06:15.019Z,1036.00
2023-10-18T16:07:13.613Z,976.00
2023-10-18T16:08:13.592Z,920.00
2023-10-18T16:09:13.579Z,864.00
2023-10-18T16:10:13.563Z,812.00
2023-10-18T16:11:13.609Z,760.00
2023-10-18T16:12:13.555Z,712.00
2023-10-18T16:13:13.520Z,668.00
2023-10-18T16:14:13.605Z,624.00
2023-10-18T16:15:13.517Z,580.00
2023-10-18T16:16:13.612Z,536.00
2023-10-18T16:17:13.497Z,496.00
2023-10-18T16:18:13.585Z,460.00
2023-10-18T16:19:13.453Z,424.00
2023-10-18T16:20:13.518Z,392.00
2023-10-18T16:21:13.442Z,356.00
2023-10-18T16:22:13.412Z,328.00